sensor_id;sensor_type;location;lat;lon;timestamp;temperature;humidity
18434;DHT22;9344;52.294;13.626;2022-11-14T00:01:12;7.60;99.90
18434;DHT22;9344;52.294;13.626;2022-11-14T00:03:40;7.50;99.90
18434;DHT22;9344;52.294;13.626;2022-11-14T00:06:07;7.50;99.90
18434;DHT22;9344;52.294;13.626;2022-11-14T00:08:34;7.50;99.90
18434;DHT22;9344;52.294;13.626;2022-11-14T00:11:01;7.40;99.90
18434;DHT22;9344;52.294;13.626;2022-11-14T00:13:28;7.50;99.90
18434;DHT22;9344;52.294;13.626;2022-11-14T00:15:54;7.50;99.90
18434;DHT22;9344;52.294;13.626;2022-11-14T00:18:21;7.50;99.90
18434;DHT22;9344;52.294;13.626;2022-11-14T00:20:50;7.50;99.90
18434;DHT22;9344;52.294;13.626;2022-11-14T00:23:17;7.50;99.90
18434;DHT22;9344;52.294;13.626;2022-11-14T00:25:44;7.50;99.90
18434;DHT22;9344;52.294;13.626;2022-11-14T00:28:11;7.50;99.90
18434;DHT22;9344;52.294;13.626;2022-11-14T00:30:37;7.50;99.90
18434;DHT22;9344;52.294;13.626;2022-11-14T00:33:04;7.50;99.90
18434;DHT22;9344;52.294;13.626;2022-11-14T00:35:30;7.50;99.90
18434;DHT22;9344;52.294;13.626;2022-11-14T00:37:58;7.50;99.90
18434;DHT22;9344;52.294;13.626;2022-11-14T00:40:25;7.50;99.90
18434;DHT22;9344;52.294;13.626;2022-11-14T00:42:51;7.50;99.90
18434;DHT22;9344;52.294;13.626;2022-11-14T00:45:17;7.50;99.90
18434;DHT22;9344;52.294;13.626;2022-11-14T00:47:44;7.40;99.90
18434;DHT22;9344;52.294;13.626;2022-11-14T00:50:10;7.40;99.90
18434;DHT22;9344;52.294;13.626;2022-11-14T00:52:37;7.40;99.90
18434;DHT22;9344;52.294;13.626;2022-11-14T00:55:06;7.40;99.90
18434;DHT22;9344;52.294;13.626;2022-11-14T00:57:33;7.40;99.90
18434;DHT22;9344;52.294;13.626;2022-11-14T00:59:59;7.40;99.90
18434;DHT22;9344;52.294;13.626;2022-11-14T01:02:26;7.40;99.90
18434;DHT22;9344;52.294;13.626;2022-11-14T01:04:52;7.40;99.90
18434;DHT22;9344;52.294;13.626;2022-11-14T01:07:19;7.40;99.90
18434;DHT22;9344;52.294;13.626;2022-11-14T01:09:46;7.40;99.90
18434;DHT22;9344;52.294;13.626;2022-11-14T01:12:13;7.30;99.90
18434;DHT22;9344;52.294;13.626;2022-11-14T01:14:40;7.30;99.90
18434;DHT22;9344;52.294;13.626;2022-11-14T01:17:07;7.30;99.90
18434;DHT22;9344;52.294;13.626;2022-11-14T01:19:33;7.30;99.90
18434;DHT22;9344;52.294;13.626;2022-11-14T01:22:00;7.30;99.90
18434;DHT22;9344;52.294;13.626;2022-11-14T01:24:27;7.30;99.90
18434;DHT22;9344;52.294;13.626;2022-11-14T01:26:54;7.30;99.90
18434;DHT22;9344;52.294;13.626;2022-11-14T01:29:22;7.40;99.90
18434;DHT22;9344;52.294;13.626;2022-11-14T01:31:49;7.40;99.90
18434;DHT22;9344;52.294;13.626;2022-11-14T01:34:15;7.40;99.90
18434;DHT22;9344;52.294;13.626;2022-11-14T01:36:42;7.40;99.90
18434;DHT22;9344;52.294;13.626;2022-11-14T01:39:08;7.40;99.90
18434;DHT22;9344;52.294;13.626;2022-11-14T01:41:35;7.40;99.90
18434;DHT22;9344;52.294;13.626;2022-11-14T01:44:01;7.50;99.90
18434;DHT22;9344;52.294;13.626;2022-11-14T01:46:31;7.30;99.90
18434;DHT22;9344;52.294;13.626;2022-11-14T01:49:04;7.40;99.90
18434;DHT22;9344;52.294;13.626;2022-11-14T01:51:34;7.00;99.90
18434;DHT22;9344;52.294;13.626;2022-11-14T01:54:04;7.40;99.90
18434;DHT22;9344;52.294;13.626;2022-11-14T01:56:35;7.40;99.90
18434;DHT22;9344;52.294;13.626;2022-11-14T01:59:08;7.40;99.90
18434;DHT22;9344;52.294;13.626;2022-11-14T02:01:40;7.50;99.90
18434;DHT22;9344;52.294;13.626;2022-11-14T02:04:07;7.50;99.90
18434;DHT22;9344;52.294;13.626;2022-11-14T02:06:34;7.60;99.90
18434;DHT22;9344;52.294;13.626;2022-11-14T02:09:04;7.50;99.90
18434;DHT22;9344;52.294;13.626;2022-11-14T02:11:35;7.50;99.90
18434;DHT22;9344;52.294;13.626;2022-11-14T02:14:03;7.50;99.90
18434;DHT22;9344;52.294;13.626;2022-11-14T02:16:30;7.50;99.90
18434;DHT22;9344;52.294;13.626;2022-11-14T02:18:58;7.50;99.90
18434;DHT22;9344;52.294;13.626;2022-11-14T02:21:25;7.50;99.90
18434;DHT22;9344;52.294;13.626;2022-11-14T02:23:52;7.50;99.90
18434;DHT22;9344;52.294;13.626;2022-11-14T02:26:20;7.50;99.90
18434;DHT22;9344;52.294;13.626;2022-11-14T02:28:47;7.50;99.90
18434;DHT22;9344;52.294;13.626;2022-11-14T02:31:14;7.50;99.90
18434;DHT22;9344;52.294;13.626;2022-11-14T02:33:41;7.50;99.90
18434;DHT22;9344;52.294;13.626;2022-11-14T02:36:08;7.50;99.90
18434;DHT22;9344;52.294;13.626;2022-11-14T02:38:36;7.50;99.90
18434;DHT22;9344;52.294;13.626;2022-11-14T02:41:02;7.50;99.90
18434;DHT22;9344;52.294;13.626;2022-11-14T02:43:29;7.50;99.90
18434;DHT22;9344;52.294;13.626;2022-11-14T02:45:55;7.50;99.90
18434;DHT22;9344;52.294;13.626;2022-11-14T02:48:22;7.60;99.90
18434;DHT22;9344;52.294;13.626;2022-11-14T02:50:48;7.50;99.90
18434;DHT22;9344;52.294;13.626;2022-11-14T02:53:15;7.50;99.90
18434;DHT22;9344;52.294;13.626;2022-11-14T02:55:43;7.50;99.90
18434;DHT22;9344;52.294;13.626;2022-11-14T02:58:09;7.60;99.90
18434;DHT22;9344;52.294;13.626;2022-11-14T03:00:36;7.50;99.90
18434;DHT22;9344;52.294;13.626;2022-11-14T03:03:02;7.50;99.90
18434;DHT22;9344;52.294;13.626;2022-11-14T03:05:29;7.40;99.90
18434;DHT22;9344;52.294;13.626;2022-11-14T03:07:56;7.40;99.90
18434;DHT22;9344;52.294;13.626;2022-11-14T03:10:23;7.50;99.90
18434;DHT22;9344;52.294;13.626;2022-11-14T03:12:53;7.40;99.90
18434;DHT22;9344;52.294;13.626;2022-11-14T03:15:20;7.40;99.90
18434;DHT22;9344;52.294;13.626;2022-11-14T03:17:46;7.50;99.90
18434;DHT22;9344;52.294;13.626;2022-11-14T03:20:13;7.50;99.90
18434;DHT22;9344;52.294;13.626;2022-11-14T03:22:39;7.40;99.90
18434;DHT22;9344;52.294;13.626;2022-11-14T03:25:07;7.40;99.90
18434;DHT22;9344;52.294;13.626;2022-11-14T03:27:33;7.40;99.90
18434;DHT22;9344;52.294;13.626;2022-11-14T03:30:01;7.50;99.90
18434;DHT22;9344;52.294;13.626;2022-11-14T03:32:28;7.50;99.90
18434;DHT22;9344;52.294;13.626;2022-11-14T03:34:54;7.40;99.90
18434;DHT22;9344;52.294;13.626;2022-11-14T03:37:21;7.30;99.90
18434;DHT22;9344;52.294;13.626;2022-11-14T03:39:47;7.30;99.90
18434;DHT22;9344;52.294;13.626;2022-11-14T03:42:14;7.30;99.90
18434;DHT22;9344;52.294;13.626;2022-11-14T03:44:40;7.30;99.90
18434;DHT22;9344;52.294;13.626;2022-11-14T03:47:08;7.20;99.90
18434;DHT22;9344;52.294;13.626;2022-11-14T03:49:35;7.30;99.90
18434;DHT22;9344;52.294;13.626;2022-11-14T03:52:01;7.30;99.90
18434;DHT22;9344;52.294;13.626;2022-11-14T03:54:28;7.30;99.90
18434;DHT22;9344;52.294;13.626;2022-11-14T03:56:54;7.20;99.90
18434;DHT22;9344;52.294;13.626;2022-11-14T03:59:21;7.30;99.90
18434;DHT22;9344;52.294;13.626;2022-11-14T04:01:47;7.30;99.90
18434;DHT22;9344;52.294;13.626;2022-11-14T04:04:15;7.20;99.90
18434;DHT22;9344;52.294;13.626;2022-11-14T04:06:42;7.20;99.90
18434;DHT22;9344;52.294;13.626;2022-11-14T04:09:09;7.20;99.90
18434;DHT22;9344;52.294;13.626;2022-11-14T04:11:35;7.10;99.90
18434;DHT22;9344;52.294;13.626;2022-11-14T04:14:02;7.10;99.90
18434;DHT22;9344;52.294;13.626;2022-11-14T04:16:28;7.10;99.90
18434;DHT22;9344;52.294;13.626;2022-11-14T04:18:55;7.10;99.90
18434;DHT22;9344;52.294;13.626;2022-11-14T04:21:23;7.00;99.90
18434;DHT22;9344;52.294;13.626;2022-11-14T04:23:49;7.00;99.90
18434;DHT22;9344;52.294;13.626;2022-11-14T04:26:16;7.00;99.90
18434;DHT22;9344;52.294;13.626;2022-11-14T04:28:42;7.10;99.90
18434;DHT22;9344;52.294;13.626;2022-11-14T04:31:09;7.00;99.90
18434;DHT22;9344;52.294;13.626;2022-11-14T04:33:36;7.00;99.90
18434;DHT22;9344;52.294;13.626;2022-11-14T04:36:02;7.00;99.90
18434;DHT22;9344;52.294;13.626;2022-11-14T04:38:30;7.00;99.90
18434;DHT22;9344;52.294;13.626;2022-11-14T04:40:57;7.00;99.90
18434;DHT22;9344;52.294;13.626;2022-11-14T04:43:23;7.00;99.90
18434;DHT22;9344;52.294;13.626;2022-11-14T04:45:50;7.00;99.90
18434;DHT22;9344;52.294;13.626;2022-11-14T04:48:16;7.00;99.90
18434;DHT22;9344;52.294;13.626;2022-11-14T04:50:44;6.90;99.90
18434;DHT22;9344;52.294;13.626;2022-11-14T04:53:10;6.90;99.90
18434;DHT22;9344;52.294;13.626;2022-11-14T04:55:38;7.00;99.90
18434;DHT22;9344;52.294;13.626;2022-11-14T04:58:05;7.00;99.90
18434;DHT22;9344;52.294;13.626;2022-11-14T05:00:31;7.00;99.90
18434;DHT22;9344;52.294;13.626;2022-11-14T05:02:58;6.90;99.90
18434;DHT22;9344;52.294;13.626;2022-11-14T05:05:25;6.90;99.90
18434;DHT22;9344;52.294;13.626;2022-11-14T05:07:53;6.90;99.90
18434;DHT22;9344;52.294;13.626;2022-11-14T05:10:19;6.90;99.90
18434;DHT22;9344;52.294;13.626;2022-11-14T05:12:47;6.90;99.90
18434;DHT22;9344;52.294;13.626;2022-11-14T05:15:14;6.90;99.90
18434;DHT22;9344;52.294;13.626;2022-11-14T05:17:40;6.90;99.90
18434;DHT22;9344;52.294;13.626;2022-11-14T05:20:07;7.00;99.90
18434;DHT22;9344;52.294;13.626;2022-11-14T05:22:34;6.90;99.90
18434;DHT22;9344;52.294;13.626;2022-11-14T05:25:01;7.00;99.90
18434;DHT22;9344;52.294;13.626;2022-11-14T05:27:28;7.00;99.90
18434;DHT22;9344;52.294;13.626;2022-11-14T05:29:55;7.00;99.90
18434;DHT22;9344;52.294;13.626;2022-11-14T05:32:22;7.00;99.90
18434;DHT22;9344;52.294;13.626;2022-11-14T05:34:48;7.00;99.90
18434;DHT22;9344;52.294;13.626;2022-11-14T05:37:15;7.10;99.90
18434;DHT22;9344;52.294;13.626;2022-11-14T05:39:42;7.00;99.90
18434;DHT22;9344;52.294;13.626;2022-11-14T05:42:08;7.00;99.90
18434;DHT22;9344;52.294;13.626;2022-11-14T05:44:35;7.00;99.90
18434;DHT22;9344;52.294;13.626;2022-11-14T05:47:02;7.00;99.90
18434;DHT22;9344;52.294;13.626;2022-11-14T05:49:29;7.00;99.90
18434;DHT22;9344;52.294;13.626;2022-11-14T05:51:55;6.90;99.90
18434;DHT22;9344;52.294;13.626;2022-11-14T05:54:22;6.90;99.90
18434;DHT22;9344;52.294;13.626;2022-11-14T05:56:48;7.00;99.90
18434;DHT22;9344;52.294;13.626;2022-11-14T05:59:15;7.00;99.90
18434;DHT22;9344;52.294;13.626;2022-11-14T06:01:41;7.00;99.90
18434;DHT22;9344;52.294;13.626;2022-11-14T06:04:10;6.90;99.90
18434;DHT22;9344;52.294;13.626;2022-11-14T06:06:38;6.90;99.90
18434;DHT22;9344;52.294;13.626;2022-11-14T06:09:04;6.90;99.90
18434;DHT22;9344;52.294;13.626;2022-11-14T06:11:31;7.00;99.90
18434;DHT22;9344;52.294;13.626;2022-11-14T06:13:57;6.90;99.90
18434;DHT22;9344;52.294;13.626;2022-11-14T06:16:24;6.90;99.90
18434;DHT22;9344;52.294;13.626;2022-11-14T06:18:51;6.90;99.90
18434;DHT22;9344;52.294;13.626;2022-11-14T06:21:21;6.90;99.90
18434;DHT22;9344;52.294;13.626;2022-11-14T06:23:48;6.90;99.90
18434;DHT22;9344;52.294;13.626;2022-11-14T06:26:20;6.90;99.90
18434;DHT22;9344;52.294;13.626;2022-11-14T06:28:47;6.80;99.90
18434;DHT22;9344;52.294;13.626;2022-11-14T06:31:14;6.80;99.90
18434;DHT22;9344;52.294;13.626;2022-11-14T06:33:40;6.90;99.90
18434;DHT22;9344;52.294;13.626;2022-11-14T06:36:08;6.90;99.90
18434;DHT22;9344;52.294;13.626;2022-11-14T06:38:37;6.90;99.90
18434;DHT22;9344;52.294;13.626;2022-11-14T06:41:05;6.90;99.90
18434;DHT22;9344;52.294;13.626;2022-11-14T06:43:32;6.90;99.90
18434;DHT22;9344;52.294;13.626;2022-11-14T06:45:59;6.90;99.90
18434;DHT22;9344;52.294;13.626;2022-11-14T06:48:26;6.90;99.90
18434;DHT22;9344;52.294;13.626;2022-11-14T06:50:54;6.90;99.90
18434;DHT22;9344;52.294;13.626;2022-11-14T06:53:21;6.90;99.90
18434;DHT22;9344;52.294;13.626;2022-11-14T06:55:57;6.80;99.90
18434;DHT22;9344;52.294;13.626;2022-11-14T06:58:25;6.80;99.90
18434;DHT22;9344;52.294;13.626;2022-11-14T07:00:52;6.80;99.90
18434;DHT22;9344;52.294;13.626;2022-11-14T07:03:19;6.90;99.90
18434;DHT22;9344;52.294;13.626;2022-11-14T07:05:45;6.80;99.90
18434;DHT22;9344;52.294;13.626;2022-11-14T07:08:12;6.80;99.90
18434;DHT22;9344;52.294;13.626;2022-11-14T07:10:39;6.90;99.90
18434;DHT22;9344;52.294;13.626;2022-11-14T07:13:06;6.80;99.90
18434;DHT22;9344;52.294;13.626;2022-11-14T07:15:34;6.90;99.90
18434;DHT22;9344;52.294;13.626;2022-11-14T07:18:01;6.90;99.90
18434;DHT22;9344;52.294;13.626;2022-11-14T07:20:27;7.00;99.90
18434;DHT22;9344;52.294;13.626;2022-11-14T07:22:54;7.00;99.90
18434;DHT22;9344;52.294;13.626;2022-11-14T07:25:21;7.00;99.90
18434;DHT22;9344;52.294;13.626;2022-11-14T07:27:47;7.00;99.90
18434;DHT22;9344;52.294;13.626;2022-11-14T07:30:16;7.00;99.90
18434;DHT22;9344;52.294;13.626;2022-11-14T07:32:42;7.00;99.90
18434;DHT22;9344;52.294;13.626;2022-11-14T07:35:09;7.00;99.90
18434;DHT22;9344;52.294;13.626;2022-11-14T07:37:35;7.00;99.90
18434;DHT22;9344;52.294;13.626;2022-11-14T07:40:03;6.90;99.90
18434;DHT22;9344;52.294;13.626;2022-11-14T07:42:29;6.90;99.90
18434;DHT22;9344;52.294;13.626;2022-11-14T07:44:56;6.90;99.90
18434;DHT22;9344;52.294;13.626;2022-11-14T07:47:23;6.90;99.90
18434;DHT22;9344;52.294;13.626;2022-11-14T07:49:51;7.00;99.90
18434;DHT22;9344;52.294;13.626;2022-11-14T07:52:18;7.10;99.90
18434;DHT22;9344;52.294;13.626;2022-11-14T07:54:45;6.90;99.90
18434;DHT22;9344;52.294;13.626;2022-11-14T07:57:11;6.90;99.90
18434;DHT22;9344;52.294;13.626;2022-11-14T07:59:38;7.00;99.90
18434;DHT22;9344;52.294;13.626;2022-11-14T08:02:04;7.20;99.90
18434;DHT22;9344;52.294;13.626;2022-11-14T08:04:32;7.00;99.90
18434;DHT22;9344;52.294;13.626;2022-11-14T08:06:59;7.00;99.90
18434;DHT22;9344;52.294;13.626;2022-11-14T08:09:25;7.00;99.90
18434;DHT22;9344;52.294;13.626;2022-11-14T08:11:52;7.00;99.90
18434;DHT22;9344;52.294;13.626;2022-11-14T08:14:18;6.90;99.90
18434;DHT22;9344;52.294;13.626;2022-11-14T08:16:45;6.90;99.90
18434;DHT22;9344;52.294;13.626;2022-11-14T08:19:11;7.00;99.90
18434;DHT22;9344;52.294;13.626;2022-11-14T08:21:42;7.00;99.90
18434;DHT22;9344;52.294;13.626;2022-11-14T08:24:08;7.10;99.90
18434;DHT22;9344;52.294;13.626;2022-11-14T08:26:35;7.20;99.90
18434;DHT22;9344;52.294;13.626;2022-11-14T08:29:01;7.20;99.90
18434;DHT22;9344;52.294;13.626;2022-11-14T08:31:28;7.20;99.90
18434;DHT22;9344;52.294;13.626;2022-11-14T08:33:55;7.20;99.90
18434;DHT22;9344;52.294;13.626;2022-11-14T08:36:21;7.30;99.90
18434;DHT22;9344;52.294;13.626;2022-11-14T08:38:49;7.30;99.90
18434;DHT22;9344;52.294;13.626;2022-11-14T08:41:15;7.30;99.90
18434;DHT22;9344;52.294;13.626;2022-11-14T08:43:42;7.40;99.90
18434;DHT22;9344;52.294;13.626;2022-11-14T08:46:08;7.40;99.90
18434;DHT22;9344;52.294;13.626;2022-11-14T08:48:35;7.40;99.90
18434;DHT22;9344;52.294;13.626;2022-11-14T08:51:03;7.50;99.90
18434;DHT22;9344;52.294;13.626;2022-11-14T08:53:30;7.50;99.90
18434;DHT22;9344;52.294;13.626;2022-11-14T08:55:58;7.50;99.90
18434;DHT22;9344;52.294;13.626;2022-11-14T08:58:27;7.60;99.90
18434;DHT22;9344;52.294;13.626;2022-11-14T09:00:54;7.60;99.90
18434;DHT22;9344;52.294;13.626;2022-11-14T09:03:24;7.70;99.90
18434;DHT22;9344;52.294;13.626;2022-11-14T09:05:51;7.80;99.90
18434;DHT22;9344;52.294;13.626;2022-11-14T09:08:18;7.80;99.90
18434;DHT22;9344;52.294;13.626;2022-11-14T09:10:44;7.80;99.90
18434;DHT22;9344;52.294;13.626;2022-11-14T09:13:12;7.80;99.90
18434;DHT22;9344;52.294;13.626;2022-11-14T09:15:39;7.90;99.90
18434;DHT22;9344;52.294;13.626;2022-11-14T09:18:05;7.90;99.90
18434;DHT22;9344;52.294;13.626;2022-11-14T09:20:32;8.00;99.90
18434;DHT22;9344;52.294;13.626;2022-11-14T09:22:59;8.20;99.90
18434;DHT22;9344;52.294;13.626;2022-11-14T09:25:26;8.20;99.90
18434;DHT22;9344;52.294;13.626;2022-11-14T09:27:53;8.30;99.90
18434;DHT22;9344;52.294;13.626;2022-11-14T09:30:21;8.20;99.90
18434;DHT22;9344;52.294;13.626;2022-11-14T09:32:48;8.30;99.90
18434;DHT22;9344;52.294;13.626;2022-11-14T09:35:15;8.20;99.90
18434;DHT22;9344;52.294;13.626;2022-11-14T09:37:41;8.10;99.90
18434;DHT22;9344;52.294;13.626;2022-11-14T09:40:10;8.00;99.90
18434;DHT22;9344;52.294;13.626;2022-11-14T09:42:53;8.10;99.90
18434;DHT22;9344;52.294;13.626;2022-11-14T09:45:23;8.10;99.90
18434;DHT22;9344;52.294;13.626;2022-11-14T09:47:54;8.30;99.90
18434;DHT22;9344;52.294;13.626;2022-11-14T09:50:24;8.30;99.90
18434;DHT22;9344;52.294;13.626;2022-11-14T09:52:54;8.40;99.90
18434;DHT22;9344;52.294;13.626;2022-11-14T09:55:22;8.40;99.90
18434;DHT22;9344;52.294;13.626;2022-11-14T09:57:53;8.50;99.90
18434;DHT22;9344;52.294;13.626;2022-11-14T10:00:24;8.50;99.90
18434;DHT22;9344;52.294;13.626;2022-11-14T10:03:02;8.60;99.90
18434;DHT22;9344;52.294;13.626;2022-11-14T10:05:55;8.70;99.90
18434;DHT22;9344;52.294;13.626;2022-11-14T10:08:37;8.70;99.90
18434;DHT22;9344;52.294;13.626;2022-11-14T10:11:11;8.80;99.90
18434;DHT22;9344;52.294;13.626;2022-11-14T10:14:05;8.80;99.90
18434;DHT22;9344;52.294;13.626;2022-11-14T10:16:41;8.80;99.90
18434;DHT22;9344;52.294;13.626;2022-11-14T10:19:17;8.90;99.90
18434;DHT22;9344;52.294;13.626;2022-11-14T10:22:01;9.00;99.90
18434;DHT22;9344;52.294;13.626;2022-11-14T10:24:45;9.20;99.90
18434;DHT22;9344;52.294;13.626;2022-11-14T10:27:18;9.30;99.90
18434;DHT22;9344;52.294;13.626;2022-11-14T10:30:08;9.30;99.90
18434;DHT22;9344;52.294;13.626;2022-11-14T10:32:58;9.30;99.90
18434;DHT22;9344;52.294;13.626;2022-11-14T10:35:34;9.40;99.90
18434;DHT22;9344;52.294;13.626;2022-11-14T10:38:08;9.40;99.90
18434;DHT22;9344;52.294;13.626;2022-11-14T10:40:40;9.50;99.90
18434;DHT22;9344;52.294;13.626;2022-11-14T10:43:17;9.60;99.90
18434;DHT22;9344;52.294;13.626;2022-11-14T10:45:49;9.60;99.90
18434;DHT22;9344;52.294;13.626;2022-11-14T10:48:27;9.70;99.90
18434;DHT22;9344;52.294;13.626;2022-11-14T10:50:57;9.80;99.90
18434;DHT22;9344;52.294;13.626;2022-11-14T10:53:28;9.80;99.90
18434;DHT22;9344;52.294;13.626;2022-11-14T10:55:56;9.90;99.90
18434;DHT22;9344;52.294;13.626;2022-11-14T10:58:23;9.90;99.90
18434;DHT22;9344;52.294;13.626;2022-11-14T11:00:50;10.00;99.90
18434;DHT22;9344;52.294;13.626;2022-11-14T11:03:16;10.10;99.90
18434;DHT22;9344;52.294;13.626;2022-11-14T11:05:49;10.10;99.90
18434;DHT22;9344;52.294;13.626;2022-11-14T11:08:20;10.10;99.90
18434;DHT22;9344;52.294;13.626;2022-11-14T11:11:10;10.20;99.90
18434;DHT22;9344;52.294;13.626;2022-11-14T11:13:58;10.20;99.90
18434;DHT22;9344;52.294;13.626;2022-11-14T11:16:27;10.20;99.90
18434;DHT22;9344;52.294;13.626;2022-11-14T11:19:13;10.30;99.90
18434;DHT22;9344;52.294;13.626;2022-11-14T11:21:47;10.40;99.90
18434;DHT22;9344;52.294;13.626;2022-11-14T11:24:29;10.40;99.90
18434;DHT22;9344;52.294;13.626;2022-11-14T11:27:12;10.50;99.90
18434;DHT22;9344;52.294;13.626;2022-11-14T11:29:39;10.60;99.90
18434;DHT22;9344;52.294;13.626;2022-11-14T11:32:07;10.60;99.90
18434;DHT22;9344;52.294;13.626;2022-11-14T11:34:33;10.70;99.90
18434;DHT22;9344;52.294;13.626;2022-11-14T11:37:06;10.60;99.90
18434;DHT22;9344;52.294;13.626;2022-11-14T11:39:40;10.50;99.90
18434;DHT22;9344;52.294;13.626;2022-11-14T11:42:10;10.60;99.90
18434;DHT22;9344;52.294;13.626;2022-11-14T11:44:43;10.80;99.90
18434;DHT22;9344;52.294;13.626;2022-11-14T11:47:13;10.80;99.90
18434;DHT22;9344;52.294;13.626;2022-11-14T11:49:43;10.80;99.90
18434;DHT22;9344;52.294;13.626;2022-11-14T11:52:16;10.90;99.90
18434;DHT22;9344;52.294;13.626;2022-11-14T11:54:52;11.00;99.90
18434;DHT22;9344;52.294;13.626;2022-11-14T11:57:25;11.10;99.90
18434;DHT22;9344;52.294;13.626;2022-11-14T12:00:00;11.10;99.90
18434;DHT22;9344;52.294;13.626;2022-11-14T12:02:28;11.20;99.90
18434;DHT22;9344;52.294;13.626;2022-11-14T12:04:56;11.30;99.90
18434;DHT22;9344;52.294;13.626;2022-11-14T12:07:34;11.40;99.90
18434;DHT22;9344;52.294;13.626;2022-11-14T12:10:10;11.40;99.90
18434;DHT22;9344;52.294;13.626;2022-11-14T12:12:53;11.50;99.90
18434;DHT22;9344;52.294;13.626;2022-11-14T12:15:27;11.50;99.90
18434;DHT22;9344;52.294;13.626;2022-11-14T12:18:08;11.60;99.90
18434;DHT22;9344;52.294;13.626;2022-11-14T12:21:01;11.60;99.90
18434;DHT22;9344;52.294;13.626;2022-11-14T12:23:55;11.70;99.90
18434;DHT22;9344;52.294;13.626;2022-11-14T12:26:35;11.70;99.90
18434;DHT22;9344;52.294;13.626;2022-11-14T12:29:24;11.80;99.90
18434;DHT22;9344;52.294;13.626;2022-11-14T12:31:57;11.80;99.90
18434;DHT22;9344;52.294;13.626;2022-11-14T12:34:27;11.80;99.90
18434;DHT22;9344;52.294;13.626;2022-11-14T12:36:55;11.90;99.90
18434;DHT22;9344;52.294;13.626;2022-11-14T12:39:24;11.90;99.90
18434;DHT22;9344;52.294;13.626;2022-11-14T12:42:00;11.90;99.90
18434;DHT22;9344;52.294;13.626;2022-11-14T12:44:34;12.00;99.90
18434;DHT22;9344;52.294;13.626;2022-11-14T12:47:12;12.10;99.90
18434;DHT22;9344;52.294;13.626;2022-11-14T12:52:44;12.20;99.90
18434;DHT22;9344;52.294;13.626;2022-11-14T12:58:30;12.30;99.90
18434;DHT22;9344;52.294;13.626;2022-11-14T13:01:09;12.40;99.90
18434;DHT22;9344;52.294;13.626;2022-11-14T13:03:52;12.40;99.90
18434;DHT22;9344;52.294;13.626;2022-11-14T13:06:24;12.50;99.90
18434;DHT22;9344;52.294;13.626;2022-11-14T13:09:02;12.50;99.90
18434;DHT22;9344;52.294;13.626;2022-11-14T13:11:37;12.50;99.90
18434;DHT22;9344;52.294;13.626;2022-11-14T13:14:23;12.50;99.90
18434;DHT22;9344;52.294;13.626;2022-11-14T13:17:23;12.60;99.90
18434;DHT22;9344;52.294;13.626;2022-11-14T13:20:29;12.60;99.90
18434;DHT22;9344;52.294;13.626;2022-11-14T13:23:53;12.60;99.90
18434;DHT22;9344;52.294;13.626;2022-11-14T13:26:41;12.60;99.90
18434;DHT22;9344;52.294;13.626;2022-11-14T13:35:49;12.70;99.90
18434;DHT22;9344;52.294;13.626;2022-11-14T13:38:40;12.70;99.90
18434;DHT22;9344;52.294;13.626;2022-11-14T13:44:36;12.70;99.90
18434;DHT22;9344;52.294;13.626;2022-11-14T13:47:20;12.80;99.90
18434;DHT22;9344;52.294;13.626;2022-11-14T13:49:58;14.60;99.90
18434;DHT22;9344;52.294;13.626;2022-11-14T13:52:30;13.00;99.90
18434;DHT22;9344;52.294;13.626;2022-11-14T13:54:58;13.10;99.90
18434;DHT22;9344;52.294;13.626;2022-11-14T13:57:34;13.20;99.90
18434;DHT22;9344;52.294;13.626;2022-11-14T14:00:08;13.20;99.90
18434;DHT22;9344;52.294;13.626;2022-11-14T14:03:02;13.30;99.90
18434;DHT22;9344;52.294;13.626;2022-11-14T14:05:45;13.40;99.90
18434;DHT22;9344;52.294;13.626;2022-11-14T14:08:20;13.50;99.90
18434;DHT22;9344;52.294;13.626;2022-11-14T14:11:01;13.60;99.90
18434;DHT22;9344;52.294;13.626;2022-11-14T14:13:39;13.70;99.90
18434;DHT22;9344;52.294;13.626;2022-11-14T14:16:11;13.60;99.90
18434;DHT22;9344;52.294;13.626;2022-11-14T14:18:46;13.70;99.90
18434;DHT22;9344;52.294;13.626;2022-11-14T14:21:24;13.60;99.90
18434;DHT22;9344;52.294;13.626;2022-11-14T14:24:00;13.70;99.90
18434;DHT22;9344;52.294;13.626;2022-11-14T14:26:35;13.80;99.90
18434;DHT22;9344;52.294;13.626;2022-11-14T14:29:16;13.90;99.90
18434;DHT22;9344;52.294;13.626;2022-11-14T14:31:45;14.00;99.90
18434;DHT22;9344;52.294;13.626;2022-11-14T14:34:22;14.00;99.90
18434;DHT22;9344;52.294;13.626;2022-11-14T14:36:50;14.10;99.90
18434;DHT22;9344;52.294;13.626;2022-11-14T14:39:20;14.10;99.90
18434;DHT22;9344;52.294;13.626;2022-11-14T14:41:47;14.00;99.90
18434;DHT22;9344;52.294;13.626;2022-11-14T14:44:26;14.00;99.90
18434;DHT22;9344;52.294;13.626;2022-11-14T14:46:54;14.00;99.90
18434;DHT22;9344;52.294;13.626;2022-11-14T14:49:22;14.00;99.90
18434;DHT22;9344;52.294;13.626;2022-11-14T14:51:49;14.00;99.90
18434;DHT22;9344;52.294;13.626;2022-11-14T14:54:22;13.90;99.90
18434;DHT22;9344;52.294;13.626;2022-11-14T14:56:54;13.90;99.90
18434;DHT22;9344;52.294;13.626;2022-11-14T14:59:22;13.70;99.90
18434;DHT22;9344;52.294;13.626;2022-11-14T15:01:49;13.60;99.90
18434;DHT22;9344;52.294;13.626;2022-11-14T15:04:17;13.50;99.90
18434;DHT22;9344;52.294;13.626;2022-11-14T15:06:45;13.40;99.90
18434;DHT22;9344;52.294;13.626;2022-11-14T15:09:16;13.20;99.90
18434;DHT22;9344;52.294;13.626;2022-11-14T15:11:46;13.00;99.90
18434;DHT22;9344;52.294;13.626;2022-11-14T15:14:17;12.90;99.90
18434;DHT22;9344;52.294;13.626;2022-11-14T15:16:45;12.80;99.90
18434;DHT22;9344;52.294;13.626;2022-11-14T15:19:17;12.70;99.90
18434;DHT22;9344;52.294;13.626;2022-11-14T15:21:44;12.60;99.90
18434;DHT22;9344;52.294;13.626;2022-11-14T15:24:15;12.50;99.90
18434;DHT22;9344;52.294;13.626;2022-11-14T15:26:43;12.40;99.90
18434;DHT22;9344;52.294;13.626;2022-11-14T15:29:16;12.30;99.90
18434;DHT22;9344;52.294;13.626;2022-11-14T15:31:45;12.30;99.90
18434;DHT22;9344;52.294;13.626;2022-11-14T15:34:23;12.20;99.90
18434;DHT22;9344;52.294;13.626;2022-11-14T15:37:07;12.10;99.90
18434;DHT22;9344;52.294;13.626;2022-11-14T15:39:44;12.00;99.90
18434;DHT22;9344;52.294;13.626;2022-11-14T15:42:11;11.90;99.90
18434;DHT22;9344;52.294;13.626;2022-11-14T15:44:40;11.90;99.90
18434;DHT22;9344;52.294;13.626;2022-11-14T15:47:10;11.80;99.90
18434;DHT22;9344;52.294;13.626;2022-11-14T15:49:37;11.80;99.90
18434;DHT22;9344;52.294;13.626;2022-11-14T15:52:03;11.80;99.90
18434;DHT22;9344;52.294;13.626;2022-11-14T15:54:31;11.70;99.90
18434;DHT22;9344;52.294;13.626;2022-11-14T15:56:59;11.60;99.90
18434;DHT22;9344;52.294;13.626;2022-11-14T15:59:28;11.50;99.90
18434;DHT22;9344;52.294;13.626;2022-11-14T16:01:58;11.40;99.90
18434;DHT22;9344;52.294;13.626;2022-11-14T16:04:29;11.40;99.90
18434;DHT22;9344;52.294;13.626;2022-11-14T16:06:57;11.30;99.90
18434;DHT22;9344;52.294;13.626;2022-11-14T16:09:24;11.20;99.90
18434;DHT22;9344;52.294;13.626;2022-11-14T16:11:50;11.10;99.90
18434;DHT22;9344;52.294;13.626;2022-11-14T16:14:17;11.10;99.90
18434;DHT22;9344;52.294;13.626;2022-11-14T16:16:43;11.00;99.90